Bernadotte, Illinois
Current Conditions -  °F | °C
As of 1:35 PM on Thursday 23 Oct 2014 (Local Time) from KMQB Reporting Station
Broken Clouds Broken Clouds  
Wind Chill: 58°   Ceiling: 6000
Heat Index: 58°   Visibility: 10mi
Dew Point: 45°   Wind: 8mph
Humidity: 62%   Direction: 160°SSE
Pressure: 30.13"   Gusts: NA
Location:  40.364°N, 90.2765°W
Report Text: KMQB 231835Z AUTO 16007KT 10SM SCT050 BKN060 BKN075 15/07 A3013 RMK AO2 T01450072
Loading
Personal Weather Stations






























Interactive Weather Map
Tropical Storm Tracking
New forecast layout! Learn more

10-Day Weather Forecast

Advertisements
Track Severe Weather on mobile